createdAt,value
2023-01-15T00:01:08.408Z,4.25
2023-01-15T00:02:13.122Z,5.70
2023-01-15T00:03:15.817Z,4.43
2023-01-15T00:04:19.327Z,4.38
2023-01-15T00:05:22.108Z,4.18
2023-01-15T00:06:33.400Z,4.00
2023-01-15T00:07:36.826Z,4.47
2023-01-15T00:08:39.312Z,4.75
2023-01-15T00:09:42.819Z,4.38
2023-01-15T00:10:45.463Z,4.65
2023-01-15T00:11:56.401Z,3.80
2023-01-15T00:12:58.985Z,4.32
2023-01-15T00:14:02.806Z,3.88
2023-01-15T00:15:05.556Z,4.68
2023-01-15T00:16:09.925Z,3.75
2023-01-15T00:17:20.380Z,3.90
2023-01-15T00:18:29.364Z,3.97
2023-01-15T00:19:32.896Z,4.43
2023-01-15T00:20:35.540Z,3.92
2023-01-15T00:21:38.985Z,4.15
2023-01-15T00:22:41.506Z,3.92
2023-01-15T00:24:09.351Z,3.72
2023-01-15T00:25:31.137Z,3.70
2023-01-15T00:26:52.839Z,4.43
2023-01-15T00:27:57.749Z,3.67
2023-01-15T00:29:13.374Z,4.38
2023-01-15T00:30:24.346Z,4.60
2023-01-15T00:31:26.937Z,4.10
2023-01-15T00:32:30.592Z,4.13
2023-01-15T00:33:33.080Z,3.65
2023-01-15T00:34:43.370Z,4.00
2023-01-15T00:35:45.872Z,4.63
2023-01-15T00:36:49.330Z,3.70
2023-01-15T00:37:53.218Z,3.90
2023-01-15T00:38:55.951Z,3.70
2023-01-15T00:40:06.418Z,4.35
2023-01-15T00:41:08.892Z,3.33
2023-01-15T00:42:12.929Z,4.15
2023-01-15T00:43:16.729Z,4.70
2023-01-15T00:44:20.353Z,5.03
2023-01-15T00:45:29.362Z,4.90
2023-01-15T00:46:33.137Z,5.45
2023-01-15T00:47:35.956Z,5.43
2023-01-15T00:48:39.679Z,5.05
2023-01-15T00:49:42.466Z,5.43
2023-01-15T00:50:53.353Z,6.13
2023-01-15T00:51:55.885Z,6.20
2023-01-15T00:52:59.351Z,7.55
2023-01-15T00:54:02.130Z,6.38
2023-01-15T00:55:05.773Z,12.00
2023-01-15T00:56:15.353Z,11.80
2023-01-15T00:57:25.392Z,6.20
2023-01-15T00:58:29.252Z,14.02
2023-01-15T00:59:32.702Z,9.32
2023-01-15T01:00:35.324Z,7.22
2023-01-15T01:01:39.891Z,10.60
2023-01-15T01:02:49.375Z,10.00
2023-01-15T01:03:53.144Z,7.82
2023-01-15T01:04:55.685Z,6.38
2023-01-15T01:06:06.057Z,4.93
2023-01-15T01:07:08.640Z,3.58
2023-01-15T01:08:18.354Z,4.18
2023-01-15T01:09:20.909Z,8.38
2023-01-15T01:10:31.395Z,4.85
2023-01-15T01:11:36.833Z,3.75
2023-01-15T01:12:39.402Z,3.90
2023-01-15T01:13:51.364Z,3.70
2023-01-15T01:14:53.875Z,3.85
2023-01-15T01:15:57.386Z,3.88
2023-01-15T01:16:59.969Z,3.67
2023-01-15T01:18:03.694Z,5.47
2023-01-15T01:19:13.673Z,4.82
2023-01-15T01:20:17.439Z,4.15
2023-01-15T01:21:20.039Z,5.10
2023-01-15T01:22:30.422Z,3.53
2023-01-15T01:23:33.233Z,3.60
2023-01-15T01:24:36.715Z,3.65
2023-01-15T01:25:39.279Z,3.50
2023-01-15T01:26:44.149Z,3.53
2023-01-15T01:27:53.359Z,3.53
2023-01-15T01:29:05.582Z,3.55
2023-01-15T01:30:08.512Z,3.88
2023-01-15T01:31:12.470Z,3.22
2023-01-15T01:32:15.140Z,3.58
2023-01-15T01:33:25.379Z,3.00
2023-01-15T01:34:35.380Z,3.40
2023-01-15T01:35:37.867Z,2.80
2023-01-15T01:36:42.663Z,3.08
2023-01-15T01:37:56.376Z,3.00
2023-01-15T01:38:59.907Z,3.20
2023-01-15T01:40:02.535Z,3.30
2023-01-15T01:41:06.036Z,3.60
2023-01-15T01:42:13.009Z,2.90
2023-01-15T01:43:26.420Z,3.47
2023-01-15T01:44:56.681Z,4.07
2023-01-15T01:46:00.574Z,3.75
2023-01-15T01:47:05.052Z,3.60
2023-01-15T01:48:09.133Z,4.10
2023-01-15T01:49:20.355Z,3.20
2023-01-15T01:50:23.951Z,3.70
2023-01-15T01:51:28.689Z,2.72
2023-01-15T01:52:34.908Z,3.25
2023-01-15T01:53:37.436Z,3.45
2023-01-15T01:54:47.369Z,3.42
2023-01-15T01:55:50.328Z,2.97
2023-01-15T01:56:53.953Z,3.00
2023-01-15T01:57:59.216Z,2.53
2023-01-15T01:59:02.656Z,3.10
2023-01-15T02:00:13.499Z,3.00
2023-01-15T02:01:18.846Z,2.63
2023-01-15T02:02:23.179Z,3.05
2023-01-15T02:03:28.284Z,3.55
2023-01-15T02:04:31.540Z,3.30
2023-01-15T02:05:44.419Z,2.67
2023-01-15T02:06:47.019Z,3.13
2023-01-15T02:07:50.491Z,2.80
2023-01-15T02:08:53.115Z,3.53
2023-01-15T02:09:56.586Z,3.00
2023-01-15T02:11:05.369Z,3.20
2023-01-15T02:12:20.372Z,3.30
2023-01-15T02:13:27.768Z,2.95
2023-01-15T02:14:32.400Z,2.78
2023-01-15T02:15:37.744Z,2.83
2023-01-15T02:16:45.288Z,2.88
2023-01-15T02:17:56.392Z,2.97
2023-01-15T02:19:02.786Z,2.88
2023-01-15T02:20:17.614Z,2.58
2023-01-15T02:21:25.407Z,3.00
2023-01-15T02:22:40.410Z,2.78
2023-01-15T02:23:53.766Z,3.03
2023-01-15T02:24:59.015Z,2.50
2023-01-15T02:26:12.156Z,2.78
2023-01-15T02:27:18.047Z,2.42
2023-01-15T02:28:32.356Z,3.50
2023-01-15T02:29:56.710Z,2.70
2023-01-15T02:31:01.027Z,2.53
2023-01-15T02:32:07.628Z,2.05
2023-01-15T02:33:13.982Z,2.63
2023-01-15T02:34:27.361Z,2.70
2023-01-15T02:35:33.900Z,2.70
2023-01-15T02:36:38.465Z,2.38
2023-01-15T02:37:45.266Z,2.65
2023-01-15T02:38:49.277Z,2.38
2023-01-15T02:40:00.391Z,2.55
2023-01-15T02:41:04.495Z,2.30
2023-01-15T02:42:09.208Z,2.30
2023-01-15T02:43:14.245Z,2.17
2023-01-15T02:44:19.773Z,2.22
2023-01-15T02:45:31.448Z,2.58
2023-01-15T02:46:37.893Z,2.40
2023-01-15T02:47:43.227Z,2.05
2023-01-15T02:48:48.063Z,2.25
2023-01-15T02:49:58.408Z,2.22
2023-01-15T02:51:05.935Z,2.30
2023-01-15T02:52:11.147Z,2.70
2023-01-15T02:53:16.043Z,2.75
2023-01-15T02:54:20.764Z,2.30
2023-01-15T02:55:32.402Z,2.50
2023-01-15T02:56:36.154Z,2.20
2023-01-15T02:57:40.862Z,2.70
2023-01-15T02:58:45.262Z,2.30
2023-01-15T02:59:50.197Z,2.33
2023-01-15T03:01:01.519Z,2.42
2023-01-15T03:02:07.962Z,2.45
2023-01-15T03:03:13.633Z,2.40
2023-01-15T03:04:20.147Z,2.42
2023-01-15T03:05:25.759Z,2.47
2023-01-15T03:06:41.373Z,2.08
2023-01-15T03:07:46.607Z,2.30
2023-01-15T03:08:50.709Z,2.40
2023-01-15T03:09:55.318Z,2.53
2023-01-15T03:11:05.440Z,2.60
2023-01-15T03:12:18.399Z,2.60
2023-01-15T03:13:30.373Z,2.78
2023-01-15T03:14:37.932Z,2.15
2023-01-15T03:16:02.598Z,2.42
2023-01-15T03:17:10.170Z,2.20
2023-01-15T03:18:22.390Z,2.38
2023-01-15T03:19:27.060Z,2.10
2023-01-15T03:20:31.183Z,2.38
2023-01-15T03:21:37.470Z,2.38
2023-01-15T03:22:43.869Z,2.50
2023-01-15T03:23:55.405Z,1.90
2023-01-15T03:25:00.997Z,2.17
2023-01-15T03:26:03.515Z,2.42
2023-01-15T03:27:07.031Z,1.92
2023-01-15T03:28:12.033Z,2.85
2023-01-15T03:29:22.429Z,2.40
2023-01-15T03:30:26.406Z,2.17
2023-01-15T03:31:30.349Z,2.17
2023-01-15T03:32:32.907Z,2.20
2023-01-15T03:33:36.952Z,1.85
2023-01-15T03:34:49.414Z,2.60
2023-01-15T03:35:56.135Z,2.25
2023-01-15T03:36:58.654Z,2.20
2023-01-15T03:38:02.139Z,2.30
2023-01-15T03:39:04.913Z,2.35
2023-01-15T03:40:22.850Z,2.63
2023-01-15T03:41:27.501Z,2.15
2023-01-15T03:42:47.317Z,2.20
2023-01-15T03:43:53.459Z,2.05
2023-01-15T03:44:59.804Z,2.40
2023-01-15T03:46:13.398Z,2.28
2023-01-15T03:47:22.190Z,2.38
2023-01-15T03:48:28.822Z,2.03
2023-01-15T03:49:37.771Z,2.45
2023-01-15T03:50:50.385Z,2.08
2023-01-15T03:52:01.805Z,2.20
2023-01-15T03:53:07.441Z,2.40
2023-01-15T03:54:13.474Z,2.28
2023-01-15T03:55:25.432Z,2.65
2023-01-15T03:56:33.526Z,2.35
2023-01-15T03:57:44.597Z,2.50
2023-01-15T03:58:51.056Z,2.53
2023-01-15T03:59:55.437Z,2.53
2023-01-15T04:01:00.957Z,2.38
2023-01-15T04:02:06.864Z,2.53
2023-01-15T04:03:18.417Z,2.47
2023-01-15T04:04:21.136Z,2.50
2023-01-15T04:05:25.936Z,2.75
2023-01-15T04:06:28.920Z,2.33
2023-01-15T04:07:33.107Z,2.55
2023-01-15T04:08:43.399Z,2.42
2023-01-15T04:09:46.857Z,2.95
2023-01-15T04:10:53.578Z,2.30
2023-01-15T04:12:00.455Z,2.15
2023-01-15T04:13:03.974Z,2.35
2023-01-15T04:14:13.447Z,2.50
2023-01-15T04:15:17.570Z,2.60
2023-01-15T04:16:25.021Z,2.35
2023-01-15T04:17:29.771Z,2.08
2023-01-15T04:18:32.321Z,2.30
2023-01-15T04:19:42.414Z,2.25
2023-01-15T04:20:44.903Z,2.17
2023-01-15T04:21:48.350Z,2.13
2023-01-15T04:22:50.871Z,2.13
2023-01-15T04:24:01.425Z,2.25
2023-01-15T04:25:05.519Z,1.77
2023-01-15T04:26:08.976Z,2.03
2023-01-15T04:27:12.529Z,2.05
2023-01-15T04:28:15.144Z,1.90
2023-01-15T04:29:32.397Z,1.88
2023-01-15T04:30:35.871Z,2.35
2023-01-15T04:31:38.373Z,2.08
2023-01-15T04:32:43.116Z,2.20
2023-01-15T04:33:45.645Z,2.38
2023-01-15T04:34:55.419Z,2.45
2023-01-15T04:36:06.669Z,1.73
2023-01-15T04:37:10.090Z,2.20
2023-01-15T04:38:12.577Z,1.92
2023-01-15T04:39:22.445Z,2.00
2023-01-15T04:40:43.524Z,1.80
2023-01-15T04:42:06.237Z,1.63
2023-01-15T04:43:31.074Z,1.63
2023-01-15T04:44:41.417Z,1.65
2023-01-15T04:45:44.315Z,1.92
2023-01-15T04:46:49.022Z,1.70
2023-01-15T04:47:59.006Z,1.75
2023-01-15T04:49:02.723Z,1.30
2023-01-15T04:50:12.442Z,1.80
2023-01-15T04:51:21.410Z,1.63
2023-01-15T04:52:24.927Z,1.80
2023-01-15T04:53:27.433Z,1.95
2023-01-15T04:54:30.989Z,1.38
2023-01-15T04:55:40.454Z,1.90
2023-01-15T04:56:45.042Z,1.60
2023-01-15T04:57:50.394Z,1.38
2023-01-15T04:58:53.849Z,1.65
2023-01-15T04:59:56.399Z,1.80
2023-01-15T05:01:07.616Z,1.55
2023-01-15T05:02:11.500Z,1.55
2023-01-15T05:03:15.366Z,1.42
2023-01-15T05:04:18.969Z,2.00
2023-01-15T05:05:21.620Z,1.60
2023-01-15T05:06:31.468Z,1.38
2023-01-15T05:07:34.115Z,1.48
2023-01-15T05:08:37.687Z,1.63
2023-01-15T05:09:40.180Z,1.73
2023-01-15T05:10:43.699Z,1.50
2023-01-15T05:11:53.403Z,1.40
2023-01-15T05:12:55.986Z,1.08
2023-01-15T05:13:59.577Z,1.20
2023-01-15T05:15:08.426Z,1.42
2023-01-15T05:16:13.311Z,1.27
2023-01-15T05:17:16.890Z,1.67
2023-01-15T05:18:27.415Z,1.60
2023-01-15T05:19:31.255Z,1.50
2023-01-15T05:20:36.902Z,1.90
2023-01-15T05:21:42.448Z,1.30
2023-01-15T05:22:51.434Z,1.40
2023-01-15T05:23:57.277Z,1.60
2023-01-15T05:24:59.750Z,1.17
2023-01-15T05:26:06.272Z,1.70
2023-01-15T05:27:15.419Z,1.50
2023-01-15T05:28:19.409Z,1.52
2023-01-15T05:29:29.544Z,1.45
2023-01-15T05:30:32.111Z,1.58
2023-01-15T05:31:42.416Z,1.63
2023-01-15T05:32:51.426Z,1.77
2023-01-15T05:34:03.433Z,1.80
2023-01-15T05:35:06.204Z,1.52
2023-01-15T05:36:10.816Z,2.00
2023-01-15T05:37:19.453Z,1.58
2023-01-15T05:38:22.953Z,1.92
2023-01-15T05:39:25.491Z,1.95
2023-01-15T05:40:28.971Z,1.90
2023-01-15T05:41:56.426Z,1.90
2023-01-15T05:42:59.989Z,1.65
2023-01-15T05:44:10.447Z,1.73
2023-01-15T05:45:13.865Z,1.90
2023-01-15T05:46:16.433Z,1.98
2023-01-15T05:47:19.918Z,1.90
2023-01-15T05:48:22.396Z,1.73
2023-01-15T05:49:34.779Z,1.95
2023-01-15T05:50:37.313Z,1.75
2023-01-15T05:51:41.479Z,2.10
2023-01-15T05:52:45.072Z,1.80
2023-01-15T05:53:48.626Z,1.80
2023-01-15T05:54:57.445Z,1.83
2023-01-15T05:56:02.752Z,1.60
2023-01-15T05:57:05.515Z,1.88
2023-01-15T05:58:11.252Z,1.80
2023-01-15T05:59:14.343Z,1.60
2023-01-15T06:00:24.425Z,1.63
2023-01-15T06:01:27.047Z,2.10
2023-01-15T06:02:30.598Z,1.73
2023-01-15T06:03:33.153Z,1.85
2023-01-15T06:04:37.952Z,1.63
2023-01-15T06:05:47.449Z,1.90
2023-01-15T06:06:51.467Z,1.80
2023-01-15T06:07:53.990Z,1.98
2023-01-15T06:08:57.524Z,2.05
2023-01-15T06:09:59.996Z,1.85
2023-01-15T06:11:10.499Z,2.15
2023-01-15T06:12:13.956Z,1.90
2023-01-15T06:13:16.903Z,2.17
2023-01-15T06:14:20.348Z,2.25
2023-01-15T06:15:22.861Z,2.35
2023-01-15T06:16:32.398Z,1.90
2023-01-15T06:17:41.439Z,2.10
2023-01-15T06:18:44.914Z,2.08
2023-01-15T06:19:48.717Z,1.85
2023-01-15T06:20:58.447Z,2.22
2023-01-15T06:22:03.783Z,2.10
2023-01-15T06:23:06.434Z,2.40
2023-01-15T06:24:10.095Z,2.45
2023-01-15T06:25:12.612Z,2.20
2023-01-15T06:26:24.421Z,2.10
2023-01-15T06:27:33.475Z,1.95
2023-01-15T06:28:37.057Z,1.70
2023-01-15T06:30:00.408Z,1.80
2023-01-15T06:31:05.817Z,2.00
2023-01-15T06:32:09.336Z,1.80
2023-01-15T06:33:18.444Z,1.63
2023-01-15T06:34:21.922Z,1.88
2023-01-15T06:35:25.886Z,2.15
2023-01-15T06:36:30.061Z,1.88
2023-01-15T06:37:32.566Z,1.60
2023-01-15T06:38:42.449Z,1.80
2023-01-15T06:39:45.876Z,1.63
2023-01-15T06:40:48.363Z,1.80
2023-01-15T06:42:09.477Z,1.35
2023-01-15T06:43:30.834Z,1.35
2023-01-15T06:44:58.472Z,1.40
2023-01-15T06:46:22.079Z,1.58
2023-01-15T06:47:27.712Z,1.40
2023-01-15T06:48:30.210Z,1.40
2023-01-15T06:49:34.431Z,1.38
2023-01-15T06:50:45.430Z,1.40
2023-01-15T06:51:47.919Z,1.40
2023-01-15T06:52:51.383Z,1.20
2023-01-15T06:53:53.910Z,1.55
2023-01-15T06:55:03.469Z,1.20
2023-01-15T06:56:06.139Z,1.45
2023-01-15T06:57:09.600Z,1.50
2023-01-15T06:58:13.269Z,1.38
2023-01-15T06:59:15.862Z,1.40
2023-01-15T07:00:26.513Z,1.30
2023-01-15T07:01:30.981Z,1.40
2023-01-15T07:02:34.812Z,1.55
2023-01-15T07:03:37.405Z,1.40
2023-01-15T07:04:40.940Z,1.38
2023-01-15T07:05:52.463Z,1.83
2023-01-15T07:06:55.999Z,1.52
2023-01-15T07:07:58.535Z,1.40
2023-01-15T07:09:02.012Z,1.75
2023-01-15T07:10:12.920Z,1.70
2023-01-15T07:11:15.523Z,1.55
2023-01-15T07:12:19.039Z,1.77
2023-01-15T07:13:21.526Z,1.70
2023-01-15T07:14:26.013Z,1.65
2023-01-15T07:15:35.405Z,1.75
2023-01-15T07:16:38.949Z,1.58
2023-01-15T07:17:42.456Z,1.52
2023-01-15T07:18:45.020Z,1.50
2023-01-15T07:19:55.425Z,1.50
2023-01-15T07:21:05.417Z,1.23
2023-01-15T07:22:09.475Z,1.42
2023-01-15T07:23:13.946Z,1.48
2023-01-15T07:24:21.676Z,1.38
2023-01-15T07:25:24.234Z,1.30
2023-01-15T07:26:34.429Z,1.42
2023-01-15T07:27:37.841Z,1.50
2023-01-15T07:28:40.379Z,1.30
2023-01-15T07:30:04.430Z,1.70
2023-01-15T07:31:13.501Z,1.60
2023-01-15T07:32:17.058Z,1.58
2023-01-15T07:33:19.570Z,1.40
2023-01-15T07:34:23.024Z,1.50
2023-01-15T07:35:25.668Z,0.90
2023-01-15T07:36:37.482Z,0.82
2023-01-15T07:37:40.166Z,0.90
2023-01-15T07:38:43.617Z,0.73
2023-01-15T07:39:47.077Z,0.60
2023-01-15T07:41:09.632Z,0.57
2023-01-15T07:42:37.452Z,0.70
2023-01-15T07:43:58.583Z,0.57
2023-01-15T07:45:19.827Z,0.60
2023-01-15T07:46:40.957Z,0.60
2023-01-15T07:48:08.449Z,0.60
2023-01-15T07:49:30.175Z,0.77
2023-01-15T07:50:33.610Z,0.52
2023-01-15T07:51:37.456Z,0.57
2023-01-15T07:52:40.950Z,0.70
2023-01-15T07:53:50.431Z,0.50
2023-01-15T07:54:53.891Z,0.50
2023-01-15T07:55:56.387Z,0.77
2023-01-15T07:56:59.989Z,0.90
2023-01-15T07:58:09.435Z,0.88
2023-01-15T07:59:12.905Z,1.15
2023-01-15T08:00:18.058Z,1.27
2023-01-15T08:01:20.707Z,0.93
2023-01-15T08:02:24.309Z,0.93
2023-01-15T08:03:33.548Z,1.08
2023-01-15T08:04:37.120Z,0.80
2023-01-15T08:05:40.577Z,0.85
2023-01-15T08:06:44.398Z,0.90
2023-01-15T08:07:49.116Z,0.95
2023-01-15T08:08:58.463Z,1.08
2023-01-15T08:10:08.482Z,1.27
2023-01-15T08:11:29.410Z,1.30
2023-01-15T08:12:50.278Z,1.30
2023-01-15T08:14:11.492Z,1.25
2023-01-15T08:15:21.552Z,1.35
2023-01-15T08:16:24.080Z,1.20
2023-01-15T08:17:27.606Z,1.15
2023-01-15T08:18:31.145Z,1.63
2023-01-15T08:19:33.673Z,1.10
2023-01-15T08:20:46.988Z,1.30
2023-01-15T08:21:57.436Z,0.98
2023-01-15T08:23:02.756Z,1.25
2023-01-15T08:24:05.580Z,1.20
2023-01-15T08:25:09.984Z,1.20
2023-01-15T08:26:14.041Z,1.10
2023-01-15T08:27:23.455Z,1.00
2023-01-15T08:28:27.294Z,1.20
2023-01-15T08:29:36.446Z,1.30
2023-01-15T08:30:53.625Z,1.30
2023-01-15T08:32:03.394Z,1.20
2023-01-15T08:33:06.989Z,1.00
2023-01-15T08:34:09.500Z,0.90
2023-01-15T08:35:14.126Z,1.50
2023-01-15T08:36:18.101Z,1.10
2023-01-15T08:37:29.447Z,1.00
2023-01-15T08:38:32.886Z,1.05
2023-01-15T08:39:35.531Z,0.93
2023-01-15T08:40:58.685Z,1.00
2023-01-15T08:42:01.355Z,1.10
2023-01-15T08:43:11.456Z,1.20
2023-01-15T08:44:13.980Z,1.27
2023-01-15T08:45:17.472Z,1.15
2023-01-15T08:46:19.994Z,1.30
2023-01-15T08:47:23.431Z,1.52
2023-01-15T08:48:32.933Z,1.40
2023-01-15T08:49:36.398Z,1.45
2023-01-15T08:50:39.801Z,1.63
2023-01-15T08:51:42.395Z,1.50
2023-01-15T08:52:47.108Z,2.38
2023-01-15T08:53:56.476Z,2.17
2023-01-15T08:54:59.946Z,1.70
2023-01-15T08:56:02.456Z,1.58
2023-01-15T08:57:06.001Z,1.15
2023-01-15T08:58:08.597Z,1.30
2023-01-15T08:59:18.439Z,1.20
2023-01-15T09:00:21.854Z,1.30
2023-01-15T09:01:25.370Z,1.70
2023-01-15T09:02:29.833Z,2.00
2023-01-15T09:03:33.380Z,2.05
2023-01-15T09:04:43.685Z,1.30
2023-01-15T09:05:47.214Z,1.50
2023-01-15T09:06:50.052Z,1.73
2023-01-15T09:07:54.995Z,2.10
2023-01-15T09:08:57.518Z,2.35
2023-01-15T09:10:07.481Z,1.33
2023-01-15T09:11:12.672Z,1.42
2023-01-15T09:12:16.159Z,1.92
2023-01-15T09:13:19.736Z,1.88
2023-01-15T09:15:00.270Z,2.80
2023-01-15T09:15:52.960Z,5.40
2023-01-15T09:16:57.862Z,8.80
2023-01-15T09:18:01.767Z,4.30
2023-01-15T09:19:04.376Z,7.57
2023-01-15T09:20:15.470Z,4.97
2023-01-15T09:21:17.973Z,5.22
2023-01-15T09:22:21.454Z,4.03
2023-01-15T09:23:26.395Z,4.25
2023-01-15T09:24:35.463Z,4.40
2023-01-15T09:25:38.902Z,3.50
2023-01-15T09:26:41.531Z,3.92
2023-01-15T09:27:45.197Z,3.38
2023-01-15T09:28:47.686Z,2.30
2023-01-15T09:30:04.526Z,2.30
2023-01-15T09:31:14.631Z,3.05
2023-01-15T09:32:18.069Z,2.97
2023-01-15T09:33:21.102Z,3.60
2023-01-15T09:34:24.728Z,4.13
2023-01-15T09:35:34.479Z,4.47
2023-01-15T09:36:40.433Z,4.47
2023-01-15T09:37:44.047Z,4.88
2023-01-15T09:38:48.955Z,6.03
2023-01-15T09:39:51.486Z,7.55
2023-01-15T09:41:03.527Z,7.63
2023-01-15T09:42:10.804Z,8.20
2023-01-15T09:43:21.203Z,6.80
2023-01-15T09:44:31.567Z,5.40
2023-01-15T09:45:39.921Z,4.53
2023-01-15T09:46:52.517Z,4.53
2023-01-15T09:48:02.526Z,4.13
2023-01-15T09:49:14.495Z,4.18
2023-01-15T09:50:23.106Z,4.20
2023-01-15T09:51:30.166Z,4.10
2023-01-15T09:52:45.476Z,3.80
2023-01-15T09:53:59.591Z,3.25
2023-01-15T09:55:12.474Z,3.90
2023-01-15T09:56:30.467Z,4.53
2023-01-15T09:57:34.608Z,4.18
2023-01-15T09:58:38.314Z,4.47
2023-01-15T09:59:43.000Z,4.00
2023-01-15T10:00:46.735Z,4.22
2023-01-15T10:01:57.463Z,4.00
2023-01-15T10:03:04.010Z,4.30
2023-01-15T10:04:09.349Z,4.47
2023-01-15T10:05:16.770Z,3.83
2023-01-15T10:06:23.231Z,4.43
2023-01-15T10:07:35.471Z,4.03
2023-01-15T10:08:40.600Z,4.13
2023-01-15T10:09:45.701Z,3.28
2023-01-15T10:10:50.448Z,3.00
2023-01-15T10:12:22.488Z,3.20
2023-01-15T10:13:30.916Z,6.75
2023-01-15T10:14:39.614Z,12.13
2023-01-15T10:15:44.149Z,5.45
2023-01-15T10:16:46.771Z,55.55
2023-01-15T10:18:00.492Z,74.13
2023-01-15T10:19:04.470Z,32.05
2023-01-15T10:20:07.463Z,14.43
2023-01-15T10:21:15.648Z,6.93
2023-01-15T10:22:23.661Z,5.00
2023-01-15T10:23:44.521Z,5.63
2023-01-15T10:24:53.973Z,5.35
2023-01-15T10:26:00.486Z,3.22
2023-01-15T10:27:05.510Z,3.00
2023-01-15T10:28:17.952Z,3.33
2023-01-15T10:29:34.473Z,6.47
2023-01-15T10:30:45.239Z,2.90
2023-01-15T10:31:51.823Z,3.58
2023-01-15T10:33:03.148Z,8.85
2023-01-15T10:34:13.709Z,19.20
2023-01-15T10:35:37.464Z,13.35
2023-01-15T10:36:43.241Z,4.18
2023-01-15T10:37:48.068Z,2.85
2023-01-15T10:38:56.184Z,5.43
2023-01-15T10:40:21.499Z,28.70
2023-01-15T10:41:44.089Z,6.05
2023-01-15T10:42:54.073Z,3.42
2023-01-15T10:44:02.070Z,4.25
2023-01-15T10:45:16.482Z,3.30
2023-01-15T10:46:20.992Z,3.30
2023-01-15T10:47:33.468Z,3.47
2023-01-15T10:48:40.621Z,3.35
2023-01-15T10:49:43.611Z,2.78
2023-01-15T10:50:47.917Z,3.10
2023-01-15T10:52:00.481Z,2.92
2023-01-15T10:53:07.449Z,3.03
2023-01-15T10:54:14.724Z,4.20
2023-01-15T10:55:21.907Z,2.78
2023-01-15T10:56:31.025Z,3.70
2023-01-15T10:57:47.505Z,3.10
2023-01-15T10:58:51.792Z,3.20
2023-01-15T10:59:58.587Z,2.83
2023-01-15T11:01:04.082Z,2.80
2023-01-15T11:02:23.600Z,2.90
2023-01-15T11:03:33.684Z,2.80
2023-01-15T11:04:37.633Z,3.20
2023-01-15T11:05:40.128Z,2.75
2023-01-15T11:06:43.762Z,3.03
2023-01-15T11:08:24.706Z,3.80
2023-01-15T11:09:20.778Z,3.50
2023-01-15T11:10:31.488Z,2.72
2023-01-15T11:12:04.564Z,2.83
2023-01-15T11:13:40.573Z,3.13
2023-01-15T11:15:03.168Z,3.15
2023-01-15T11:16:24.672Z,3.45
2023-01-15T11:17:54.469Z,4.72
2023-01-15T11:19:15.827Z,2.90
2023-01-15T11:20:31.506Z,3.25
2023-01-15T11:21:35.028Z,3.40
2023-01-15T11:22:39.713Z,2.83
2023-01-15T11:23:43.313Z,2.90
2023-01-15T11:24:54.503Z,3.10
2023-01-15T11:26:01.230Z,3.17
2023-01-15T11:27:10.482Z,3.03
2023-01-15T11:28:15.563Z,3.35
2023-01-15T11:29:22.985Z,3.53
2023-01-15T11:30:52.167Z,3.50
2023-01-15T11:32:08.489Z,2.78
2023-01-15T11:33:23.384Z,2.83
2023-01-15T11:34:26.811Z,2.80
2023-01-15T11:35:29.398Z,3.05
2023-01-15T11:36:33.546Z,3.22
2023-01-15T11:37:42.521Z,3.05
2023-01-15T11:38:47.052Z,3.08
2023-01-15T11:39:53.769Z,2.92
2023-01-15T11:40:59.339Z,3.13
2023-01-15T11:42:23.264Z,2.97
2023-01-15T11:43:51.646Z,3.17
2023-01-15T11:45:13.901Z,3.78
2023-01-15T11:46:42.185Z,4.57
2023-01-15T11:48:09.984Z,3.35
2023-01-15T11:49:37.564Z,3.30
2023-01-15T11:50:45.209Z,3.50
2023-01-15T11:51:50.368Z,2.92
2023-01-15T11:52:57.319Z,3.08
2023-01-15T11:54:01.761Z,3.45
2023-01-15T11:55:11.478Z,3.42
2023-01-15T11:56:16.980Z,3.50
2023-01-15T11:57:35.495Z,3.50
2023-01-15T11:58:42.739Z,3.67
2023-01-15T11:59:50.326Z,3.35
2023-01-15T12:01:01.558Z,2.80
2023-01-15T12:02:07.173Z,2.90
2023-01-15T12:03:13.968Z,2.90
2023-01-15T12:04:28.982Z,2.85
2023-01-15T12:05:40.544Z,3.10
2023-01-15T12:06:43.292Z,2.67
2023-01-15T12:07:47.135Z,2.63
2023-01-15T12:08:51.531Z,2.88
2023-01-15T12:10:14.890Z,2.90
2023-01-15T12:11:29.567Z,3.00
2023-01-15T12:12:39.212Z,3.13
2023-01-15T12:13:45.521Z,3.42
2023-01-15T12:14:58.684Z,3.55
2023-01-15T12:16:04.862Z,3.70
2023-01-15T12:17:20.487Z,4.45
2023-01-15T12:18:38.898Z,3.95
2023-01-15T12:19:45.859Z,3.60
2023-01-15T12:20:56.713Z,3.70
2023-01-15T12:22:13.518Z,3.40
2023-01-15T12:23:31.581Z,3.90
2023-01-15T12:24:59.808Z,3.15
2023-01-15T12:26:03.387Z,3.20
2023-01-15T12:27:20.531Z,3.47
2023-01-15T12:28:34.547Z,3.63
2023-01-15T12:29:46.755Z,4.10
2023-01-15T12:31:00.455Z,4.40
2023-01-15T12:32:05.375Z,4.35
2023-01-15T12:33:15.895Z,4.65
2023-01-15T12:34:27.481Z,4.95
2023-01-15T12:35:31.967Z,4.13
2023-01-15T12:36:38.921Z,3.92
2023-01-15T12:37:43.532Z,4.05
2023-01-15T12:38:57.593Z,4.38
2023-01-15T12:40:06.207Z,4.97
2023-01-15T12:41:12.423Z,4.47
2023-01-15T12:42:35.401Z,5.13
2023-01-15T12:44:04.504Z,5.18
2023-01-15T12:45:09.007Z,5.07
2023-01-15T12:46:14.837Z,5.15
2023-01-15T12:47:26.549Z,5.35
2023-01-15T12:48:33.126Z,4.95
2023-01-15T12:49:39.392Z,5.30
2023-01-15T12:50:45.325Z,5.00
2023-01-15T12:51:51.935Z,4.80
2023-01-15T12:53:04.536Z,4.65
2023-01-15T12:54:09.625Z,5.65
2023-01-15T12:55:15.306Z,4.93
2023-01-15T12:56:21.669Z,5.15
2023-01-15T12:57:31.016Z,5.95
2023-01-15T12:58:45.521Z,5.82
2023-01-15T12:59:53.570Z,5.50
2023-01-15T13:01:02.994Z,5.80
2023-01-15T13:02:16.641Z,6.20
2023-01-15T13:03:21.975Z,6.30
2023-01-15T13:04:33.533Z,5.88
2023-01-15T13:05:40.935Z,6.03
2023-01-15T13:06:46.747Z,6.43
2023-01-15T13:07:53.824Z,7.90
2023-01-15T13:09:00.115Z,7.07
2023-01-15T13:10:14.586Z,6.25
2023-01-15T13:11:18.157Z,7.35
2023-01-15T13:12:21.630Z,7.70
2023-01-15T13:13:25.273Z,8.23
2023-01-15T13:14:28.744Z,6.68
2023-01-15T13:15:43.508Z,5.88
2023-01-15T13:16:50.351Z,5.45
2023-01-15T13:17:57.840Z,4.60
2023-01-15T13:19:10.634Z,4.35
2023-01-15T13:20:23.383Z,4.43
2023-01-15T13:21:33.519Z,4.68
2023-01-15T13:22:42.223Z,3.85
2023-01-15T13:23:54.714Z,4.25
2023-01-15T13:25:03.870Z,4.57
2023-01-15T13:26:40.529Z,5.18
2023-01-15T13:27:56.148Z,6.40
2023-01-15T13:29:03.519Z,5.75
2023-01-15T13:30:28.491Z,5.60
2023-01-15T13:31:58.548Z,5.03
2023-01-15T13:33:09.328Z,5.80
2023-01-15T13:34:20.293Z,5.28
2023-01-15T13:35:29.575Z,5.40
2023-01-15T13:36:34.749Z,5.07
2023-01-15T13:37:46.557Z,5.53
2023-01-15T13:38:51.978Z,5.68
2023-01-15T13:39:56.172Z,4.55
2023-01-15T13:41:06.677Z,4.65
2023-01-15T13:42:35.451Z,4.53
2023-01-15T13:43:46.477Z,4.88
2023-01-15T13:44:50.496Z,4.82
2023-01-15T13:45:53.975Z,4.88
2023-01-15T13:47:04.415Z,5.45
2023-01-15T13:48:16.636Z,4.55
2023-01-15T13:49:20.763Z,5.15
2023-01-15T13:50:29.296Z,5.15
2023-01-15T13:51:37.432Z,5.20
2023-01-15T13:52:40.112Z,5.35
2023-01-15T13:53:53.533Z,5.30
2023-01-15T13:54:59.818Z,4.82
2023-01-15T13:56:06.448Z,4.78
2023-01-15T13:57:09.502Z,4.28
2023-01-15T13:58:25.637Z,4.60
2023-01-15T13:59:40.398Z,4.70
2023-01-15T14:00:43.850Z,7.20
2023-01-15T14:01:47.444Z,7.13
2023-01-15T14:02:55.015Z,7.38
2023-01-15T14:04:08.521Z,6.03
2023-01-15T14:05:24.677Z,5.25
2023-01-15T14:06:37.595Z,5.85
2023-01-15T14:07:40.236Z,5.07
2023-01-15T14:08:51.502Z,5.22
2023-01-15T14:10:00.551Z,4.63
2023-01-15T14:11:04.118Z,4.57
2023-01-15T14:12:13.521Z,4.93
2023-01-15T14:13:35.724Z,4.97
2023-01-15T14:15:00.537Z,4.70
2023-01-15T14:16:07.579Z,4.70
2023-01-15T14:17:19.999Z,4.80
2023-01-15T14:18:31.296Z,6.32
2023-01-15T14:19:49.642Z,5.57
2023-01-15T14:21:08.611Z,4.22
2023-01-15T14:22:25.707Z,4.50
2023-01-15T14:23:46.043Z,4.45
2023-01-15T14:24:53.866Z,5.18
2023-01-15T14:26:09.552Z,4.28
2023-01-15T14:27:17.030Z,4.20
2023-01-15T14:28:29.624Z,4.15
2023-01-15T14:29:53.474Z,4.90
2023-01-15T14:31:16.595Z,4.25
2023-01-15T14:32:24.374Z,3.92
2023-01-15T14:33:32.710Z,4.55
2023-01-15T14:34:37.276Z,4.45
2023-01-15T14:35:43.709Z,4.45
2023-01-15T14:37:07.523Z,4.22
2023-01-15T14:38:14.285Z,3.88
2023-01-15T14:39:36.528Z,4.20
2023-01-15T14:40:41.966Z,4.20
2023-01-15T14:41:59.334Z,4.35
2023-01-15T14:43:09.530Z,4.07
2023-01-15T14:44:19.502Z,4.10
2023-01-15T14:45:26.064Z,4.97
2023-01-15T14:46:34.177Z,4.15
2023-01-15T14:47:37.909Z,4.80
2023-01-15T14:48:49.524Z,4.72
2023-01-15T14:50:00.264Z,4.60
2023-01-15T14:51:09.679Z,4.60
2023-01-15T14:52:12.449Z,4.53
2023-01-15T14:53:40.507Z,4.70
2023-01-15T14:54:44.158Z,4.72
2023-01-15T14:55:48.646Z,4.68
2023-01-15T14:56:53.253Z,4.22
2023-01-15T14:57:58.657Z,4.43
2023-01-15T14:59:11.527Z,4.20
2023-01-15T15:00:17.667Z,3.65
2023-01-15T15:01:29.548Z,4.03
2023-01-15T15:02:36.543Z,4.75
2023-01-15T15:03:46.495Z,5.00
2023-01-15T15:04:54.084Z,4.97
2023-01-15T15:05:57.235Z,3.97
2023-01-15T15:07:16.542Z,3.70
2023-01-15T15:08:20.159Z,3.80